ADDS METAR Data INFO
IDs: Format: Raw Decoded Include TAF

Data at: 2034 UTC 16 Dec 2017

PHJH 161945Z 18011KT 15SM FEW020 SCT030 23/19 A2988
PHJH 161845Z 16011KT 15SM FEW020 SCT035 20/20 A2987
PHJH 161745Z 00000KT 5SM -RA SCT020 BKN030 19/19 A2986
PHJH 161645Z 15006KT 15SM SCT025 BKN035 19/18 A2984
PHJH 161600Z 15008KT 10SM FEW020 SCT030 19/17 A2983
PHJH 160345Z 36014KT 10SM -RA SCT020 BKN030 20/15 A2986 RMK LAST
PHJH 160245Z 34017KT 12SM -RA BKN035 20/15 A2987
PHJH 160145Z 35015KT 12SM FEW020 SCT030 BKN050 21/15 A2986
PHJH 160045Z 04010KT 12SM -RA FEW020 SCT030 BKN050 19/17 A2988
PHJH 152345Z 36014G25KT 12SM VCSH BKN030 22/16 A2989 RMK VCSH E
PHJH 152245Z 03015G29KT 12SM -RA BKN025 20/15 A2992
PHJH 152145Z 03012KT 12SM -RA SCT030 BKN045 19/16 A2995
PHJH 152045Z 01016KT 15SM -RA SCT030 BKN040 22/14 A2997
PHJH 151945Z 01010G19KT 12SM SCT035 SCT045 23/13 A2998
PHJH 151845Z 04013KT 12SM SCT040 BKN050 21/13 A2998
PHJH 151745Z 04015G21KT 10SM SCT045 BKN055 19/13 A2997
PHJH 151645Z 04008KT 10SM SCT035 BKN050 19/14 A2995